createdAt,value
2022-10-09T00:00:07.853Z,6.5
2022-10-09T00:05:08.272Z,6.5
2022-10-09T00:10:08.000Z,6.5
2022-10-09T00:15:07.688Z,6.5
2022-10-09T00:20:08.426Z,6.1
2022-10-09T00:25:08.124Z,6.1
2022-10-09T00:30:07.837Z,6.0
2022-10-09T00:35:08.551Z,6.0
2022-10-09T00:40:08.285Z,5.9
2022-10-09T00:45:08.064Z,5.9
2022-10-09T00:50:07.735Z,5.8
2022-10-09T00:55:08.440Z,5.8
2022-10-09T01:00:08.130Z,5.8
2022-10-09T01:05:07.822Z,5.8
2022-10-09T01:10:08.542Z,5.5
2022-10-09T01:15:08.237Z,5.5
2022-10-09T01:20:07.937Z,5.5
2022-10-09T01:25:08.606Z,5.5
2022-10-09T01:30:09.334Z,5.4
2022-10-09T01:35:08.027Z,5.4
2022-10-09T01:40:07.761Z,5.4
2022-10-09T01:45:08.460Z,5.4
2022-10-09T01:50:08.182Z,5.3
2022-10-09T01:55:07.878Z,5.3
2022-10-09T02:00:08.590Z,5.3
2022-10-09T02:05:08.287Z,5.3
2022-10-09T02:10:08.007Z,5.0
2022-10-09T02:15:07.713Z,5.0
2022-10-09T02:20:08.428Z,5.0
2022-10-09T02:25:08.172Z,5.0
2022-10-09T02:30:07.871Z,5.0
2022-10-09T02:35:08.617Z,5.0
2022-10-09T02:40:10.743Z,5.0
2022-10-09T02:45:07.711Z,5.0
2022-10-09T02:50:08.415Z,5.0
2022-10-09T02:55:08.138Z,5.0
2022-10-09T03:00:07.868Z,5.0
2022-10-09T03:05:08.616Z,5.0
2022-10-09T03:10:08.305Z,5.0
2022-10-09T03:15:08.009Z,5.0
2022-10-09T03:20:07.719Z,4.8
2022-10-09T03:25:08.414Z,4.8
2022-10-09T03:30:08.114Z,4.8
2022-10-09T03:35:07.808Z,4.8
2022-10-09T03:40:08.558Z,4.8
2022-10-09T03:45:08.283Z,4.8
2022-10-09T03:50:08.148Z,4.5
2022-10-09T03:55:07.821Z,4.5
2022-10-09T04:00:08.567Z,4.5
2022-10-09T04:05:02.588Z,4.5
2022-10-09T04:10:02.543Z,4.5
2022-10-09T04:15:02.595Z,4.5
2022-10-09T04:20:02.509Z,4.5
2022-10-09T04:25:02.447Z,4.5
2022-10-09T04:30:02.695Z,4.5
2022-10-09T04:35:02.514Z,4.5
2022-10-09T04:40:02.339Z,4.8
2022-10-09T04:45:02.163Z,4.8
2022-10-09T04:50:01.983Z,4.8
2022-10-09T04:55:01.712Z,4.8
2022-10-09T05:00:02.463Z,4.5
2022-10-09T05:05:02.319Z,4.5
2022-10-09T05:10:02.152Z,4.5
2022-10-09T05:15:02.060Z,4.5
2022-10-09T05:20:01.906Z,4.5
2022-10-09T05:25:02.635Z,4.5
2022-10-09T05:30:02.458Z,4.5
2022-10-09T05:35:02.192Z,4.3
2022-10-09T05:40:02.007Z,4.3
2022-10-09T05:45:01.850Z,4.5
2022-10-09T05:50:02.586Z,4.5
2022-10-09T05:55:02.329Z,4.5
2022-10-09T06:00:02.247Z,4.5
2022-10-09T06:05:02.071Z,4.5
2022-10-09T06:10:01.908Z,4.5
2022-10-09T06:15:02.656Z,4.5
2022-10-09T06:20:02.490Z,4.5
2022-10-09T06:25:02.337Z,4.8
2022-10-09T06:30:02.243Z,4.8
2022-10-09T06:35:02.184Z,5.0
2022-10-09T06:40:02.118Z,5.0
2022-10-09T06:45:02.078Z,5.0
2022-10-09T06:50:02.055Z,5.0
2022-10-09T06:55:01.907Z,5.0
2022-10-09T07:00:02.762Z,5.4
2022-10-09T07:05:02.671Z,5.4
2022-10-09T07:10:02.420Z,5.5
2022-10-09T07:15:02.234Z,6.0
2022-10-09T07:20:02.079Z,6.0
2022-10-09T07:25:01.900Z,6.5
2022-10-09T07:30:02.728Z,6.5
2022-10-09T07:35:02.565Z,7.0
2022-10-09T07:40:02.298Z,7.0
2022-10-09T07:45:02.198Z,7.6
2022-10-09T07:50:02.045Z,7.6
2022-10-09T07:55:01.905Z,8.3
2022-10-09T08:00:02.630Z,8.3
2022-10-09T08:05:02.546Z,9.5
2022-10-09T08:10:02.386Z,9.5
2022-10-09T08:15:02.139Z,10.6
2022-10-09T08:20:01.973Z,10.6
2022-10-09T08:25:01.903Z,11.6
2022-10-09T08:30:02.625Z,11.6
2022-10-09T08:35:02.442Z,12.3
2022-10-09T08:40:02.290Z,13.1
2022-10-09T08:45:02.097Z,13.1
2022-10-09T08:50:01.853Z,12.6
2022-10-09T08:55:02.605Z,12.6
2022-10-09T09:00:02.433Z,14.1
2022-10-09T09:05:02.168Z,14.1
2022-10-09T09:10:02.120Z,14.1
2022-10-09T09:15:01.990Z,14.1
2022-10-09T09:20:01.927Z,14.3
2022-10-09T09:25:02.772Z,14.3
2022-10-09T09:30:02.800Z,15.8
2022-10-09T09:35:02.762Z,15.8
2022-10-09T09:40:36.139Z,15.8
2022-10-09T09:45:02.330Z,15.8
2022-10-09T09:50:02.157Z,16.3
2022-10-09T09:55:01.957Z,16.3
2022-10-09T10:00:01.676Z,16.0
2022-10-09T10:05:02.487Z,16.0
2022-10-09T10:10:02.271Z,17.0
2022-10-09T10:15:02.105Z,17.0
2022-10-09T10:20:01.957Z,17.2
2022-10-09T10:25:01.746Z,17.2
2022-10-09T10:30:02.502Z,17.0
2022-10-09T10:35:04.669Z,17.0
2022-10-09T10:40:02.461Z,16.7
2022-10-09T10:45:02.202Z,16.7
2022-10-09T10:50:01.992Z,17.8
2022-10-09T10:55:01.753Z,17.8
2022-10-09T11:00:02.499Z,17.5
2022-10-09T11:05:02.214Z,17.5
2022-10-09T11:10:02.043Z,18.2
2022-10-09T11:15:01.775Z,18.2
2022-10-09T11:20:02.510Z,18.1
2022-10-09T11:25:02.262Z,18.1
2022-10-09T11:30:12.103Z,17.8
2022-10-09T11:35:01.940Z,17.8
2022-10-09T11:40:01.759Z,19.0
2022-10-09T11:45:02.597Z,19.0
2022-10-09T11:50:02.534Z,18.6
2022-10-09T11:55:02.341Z,18.6
2022-10-09T12:00:02.192Z,18.2
2022-10-09T12:05:02.086Z,18.2
2022-10-09T12:10:01.956Z,19.7
2022-10-09T12:15:01.889Z,19.7
2022-10-09T12:20:02.702Z,19.0
2022-10-09T12:25:02.530Z,19.0
2022-10-09T12:30:12.377Z,19.1
2022-10-09T12:35:02.313Z,19.1
2022-10-09T12:40:02.142Z,19.2
2022-10-09T12:45:01.867Z,19.2
2022-10-09T12:50:02.621Z,19.7
2022-10-09T12:55:02.461Z,19.7
2022-10-09T13:00:02.277Z,19.1
2022-10-09T13:05:01.995Z,19.1
2022-10-09T13:10:01.843Z,19.7
2022-10-09T13:15:02.592Z,19.7
2022-10-09T13:20:02.410Z,20.1
2022-10-09T13:25:02.131Z,20.1
2022-10-09T13:30:01.972Z,20.7
2022-10-09T13:35:01.790Z,20.7
2022-10-09T13:40:02.556Z,20.1
2022-10-09T13:45:02.389Z,20.1
2022-10-09T13:50:02.226Z,20.7
2022-10-09T13:55:02.077Z,20.7
2022-10-09T14:00:01.866Z,20.8
2022-10-09T14:05:02.605Z,20.8
2022-10-09T14:10:02.710Z,20.3
2022-10-09T14:15:02.439Z,20.3
2022-10-09T14:20:02.208Z,20.3
2022-10-09T14:25:02.019Z,20.3
2022-10-09T14:30:01.846Z,20.1
2022-10-09T14:35:02.737Z,20.1
2022-10-09T14:40:02.635Z,20.7
2022-10-09T14:45:02.467Z,20.7
2022-10-09T14:50:02.348Z,20.1
2022-10-09T14:55:02.221Z,20.1
2022-10-09T15:00:02.352Z,20.7
2022-10-09T15:05:02.346Z,20.7
2022-10-09T15:10:02.255Z,19.5
2022-10-09T15:15:02.054Z,19.7
2022-10-09T15:20:01.818Z,19.7
2022-10-09T15:25:02.707Z,18.8
2022-10-09T15:30:02.554Z,18.8
2022-10-09T15:35:02.389Z,19.1
2022-10-09T15:40:02.435Z,19.1
2022-10-09T15:45:02.351Z,19.7
2022-10-09T15:50:02.142Z,19.7
2022-10-09T15:55:01.973Z,18.6
2022-10-09T16:00:01.985Z,16.3
2022-10-09T16:05:01.921Z,16.3
2022-10-09T16:10:01.798Z,15.8
2022-10-09T16:15:04.398Z,15.8
2022-10-09T16:20:02.282Z,15.5
2022-10-09T16:25:02.041Z,15.5
2022-10-09T16:30:01.832Z,15.1
2022-10-09T16:35:02.612Z,15.1
2022-10-09T16:40:02.492Z,14.6
2022-10-09T16:45:02.466Z,14.6
2022-10-09T16:50:02.319Z,14.1
2022-10-09T16:55:02.233Z,14.1
2022-10-09T17:00:02.031Z,13.6
2022-10-09T17:05:01.893Z,13.6
2022-10-09T17:10:02.720Z,13.1
2022-10-09T17:15:02.638Z,12.8
2022-10-09T17:20:02.726Z,12.8
2022-10-09T17:25:02.633Z,12.8
2022-10-09T17:30:02.591Z,12.3
2022-10-09T17:35:02.496Z,12.3
2022-10-09T17:40:02.511Z,12.1
2022-10-09T17:45:02.462Z,12.1
2022-10-09T17:50:02.491Z,11.8
2022-10-09T17:55:02.355Z,11.8
2022-10-09T18:00:02.200Z,11.6
2022-10-09T18:05:01.966Z,11.6
2022-10-09T18:10:01.837Z,11.6
2022-10-09T18:15:02.646Z,11.6
2022-10-09T18:20:02.485Z,11.6
2022-10-09T18:25:02.200Z,11.6
2022-10-09T18:30:02.021Z,11.3
2022-10-09T18:35:01.855Z,11.3
2022-10-09T18:40:02.703Z,11.3
2022-10-09T18:45:02.423Z,11.3
2022-10-09T18:50:02.165Z,11.1
2022-10-09T18:55:01.970Z,11.1
2022-10-09T19:00:01.716Z,11.3
2022-10-09T19:05:02.469Z,11.3
2022-10-09T19:10:02.283Z,10.8
2022-10-09T19:15:02.010Z,10.8
2022-10-09T19:20:01.775Z,10.6
2022-10-09T19:25:02.495Z,10.6
2022-10-09T19:30:02.332Z,10.6
2022-10-09T19:35:02.155Z,10.6
2022-10-09T19:40:01.995Z,10.3
2022-10-09T19:45:01.698Z,10.3
2022-10-09T19:50:02.523Z,10.8
2022-10-09T19:55:02.290Z,10.8
2022-10-09T20:00:02.134Z,10.6
2022-10-09T20:05:02.076Z,10.6
2022-10-09T20:10:01.976Z,10.5
2022-10-09T20:15:01.905Z,10.5
2022-10-09T20:20:02.767Z,10.5
2022-10-09T20:25:02.577Z,10.5
2022-10-09T20:30:02.404Z,10.3
2022-10-09T20:35:02.247Z,10.3
2022-10-09T20:40:02.090Z,10.1
2022-10-09T20:45:01.898Z,10.1
2022-10-09T20:50:02.685Z,10.3
2022-10-09T20:55:02.473Z,10.3
2022-10-09T21:00:02.306Z,10.5
2022-10-09T21:05:02.172Z,10.5
2022-10-09T21:10:02.071Z,10.3
2022-10-09T21:15:01.802Z,10.3
2022-10-09T21:20:02.721Z,10.1
2022-10-09T21:25:02.600Z,10.1
2022-10-09T21:30:02.423Z,10.1
2022-10-09T21:35:15.064Z,10.1
2022-10-09T21:40:07.763Z,10.1
2022-10-09T21:45:08.722Z,10.1
2022-10-09T21:50:08.477Z,10.1
2022-10-09T21:55:08.166Z,10.1
2022-10-09T22:00:08.016Z,10.1
2022-10-09T22:05:07.893Z,10.1
2022-10-09T22:10:08.606Z,10.0
2022-10-09T22:15:08.322Z,10.0
2022-10-09T22:20:08.002Z,9.6
2022-10-09T22:25:07.702Z,9.6
2022-10-09T22:30:08.381Z,9.6
2022-10-09T22:35:08.077Z,9.6
2022-10-09T22:40:07.751Z,9.8
2022-10-09T22:45:08.445Z,9.8
2022-10-09T22:50:08.166Z,9.8
2022-10-09T22:55:07.869Z,9.8
2022-10-09T23:01:01.712Z,9.6
2022-10-09T23:05:08.446Z,9.6
2022-10-09T23:10:08.158Z,9.3
2022-10-09T23:15:08.417Z,9.3
2022-10-09T23:20:08.138Z,9.1
2022-10-09T23:25:07.841Z,9.1
2022-10-09T23:30:08.529Z,9.0
2022-10-09T23:35:08.236Z,9.0
2022-10-09T23:40:07.915Z,8.8
2022-10-09T23:45:08.596Z,8.8
2022-10-09T23:50:08.303Z,8.5
2022-10-09T23:55:08.018Z,8.5
